Danville, CA (94506)

10:07 AM PST on February 08, 2016 (GMT -0800)
Northridge | | Change Station
CLOSE
Current Station
Personal Weather Station
Location: Danville, CA
Elevation: 568 ft
Nearby Weather Stations

Elev 568 ft 37.80 °N, 121.93 °W | Updated 15 minutes ago

Clear
Clear
55.9 °F
Feels Like 55.9 °F
N
0.0
Wind Variable Wind from SSW

Today
High -- | Low -- °F
--% Chance of Precip.
Yesterday
High -- | Low -- °F
Precip. -- in
Pressure 30.27 in
Visibility 10.0 miles
Clouds Clear
Dew Point 48 °F
Humidity 76%
Rainfall 0.00 in
Snow Depth Not available.
7:05 AM 5:38 PM
New Moon, 0% visible
METAR KLVK 081753Z 00000KT 10SM CLR 14/08 A3027 RMK AO2 SLP251 T01440078 10144 20067 53008
Pressure 30.27 in
Visibility 10.0 miles
Clouds Clear
Dew Point 48 °F
Humidity 76%
Rainfall 0.00 in
Snow Depth Not available.
7:05 AM 5:38 PM
New Moon, 0% visible
METAR KLVK 081753Z 00000KT 10SM CLR 14/08 A3027 RMK AO2 SLP251 T01440078 10144 20067 53008

10-Day Weather Forecast

Almanac

Astronomy

Feb. 08, 2016 Rise Set
Actual Time
Civil Twilight
Nautical Twilight
Astronomical Twilight
Moon
Length of Visible Light
Length of Day
Tomorrow will be .
, % of the Moon is Illuminated

Today's Extremes

State Highs State Lows

Community

WunderPhotos

Upload Photos

1,891,475 photos uploaded!

WunderBlog® & News

Nearby

Air Quality

  Air Quality AQ Index Pollutant
Not available.

Snow Depth

Station Depth Elevation

Earthquake Activity

City Distance Mag. Time & Date
Minimum magnitude displayed is 2.5.

Coastal Water Temperatures

Place Temperature

Stations

Nearby Weather Stations

Station Location Temp. Windchill Dew Point Humidity Wind Precip. Elev Updated Type
                   

Watches & Warnings

There are currently no watches in effect.